Time;durP1;ratioP1;P1;durP2;ratioP2;P2;SDS_P1;SDS_P2;PMS_P1;PMS_P2;Temp;Humidity;BMP_temperature;BMP_pressure;BME280_temperature;BME280_humidity;BME280_pressure;Samples;Min_cycle;Max_cycle;Signal;HPM_P1;HPM_P2
2022/06/20 00:02:17;;;;;;;8.30;1.92;;;;;;;;;;5031338;28;20045;-71
2022/06/20 00:04:43;;;;;;;10.15;2.17;;;;;;;;;;5014003;28;20064;-69
2022/06/20 00:07:10;;;;;;;9.82;2.30;;;;;;;;;;5001062;28;20052;-70
2022/06/20 00:09:36;;;;;;;7.05;2.35;;;;;;;;;;5003130;28;20118;-69
2022/06/20 00:12:02;;;;;;;7.63;2.55;;;;;;;;;;5025157;28;20053;-69
2022/06/20 00:14:28;;;;;;;9.45;2.92;;;;;;;;;;5001982;28;20073;-70
2022/06/20 00:16:55;;;;;;;7.28;1.98;;;;;;;;;;5005728;28;20446;-70
2022/06/20 00:19:21;;;;;;;5.93;1.90;;;;;;;;;;5030199;28;20041;-69
2022/06/20 00:21:47;;;;;;;7.97;1.90;;;;;;;;;;4997133;28;20592;-69
2022/06/20 00:24:13;;;;;;;8.75;1.98;;;;;;;;;;5013468;28;20057;-69
2022/06/20 00:26:39;;;;;;;6.47;1.73;;;;;;;;;;5031177;28;20038;-69
2022/06/20 00:29:06;;;;;;;8.30;2.10;;;;;;;;;;5031596;28;20120;-69
2022/06/20 00:31:32;;;;;;;8.23;2.30;;;;;;;;;;5030741;28;20405;-69
2022/06/20 00:33:58;;;;;;;9.85;2.45;;;;;;;;;;5013515;28;20124;-69
2022/06/20 00:36:24;;;;;;;9.88;2.47;;;;;;;;;;5013459;28;20187;-70
2022/06/20 00:38:53;;;;;;;4.88;2.10;;;;;;;;;;5013280;28;20128;-70
2022/06/20 00:41:30;;;;;;;3.38;1.73;;;;;;;;;;5030779;28;20053;-69
2022/06/20 00:43:57;;;;;;;11.40;2.30;;;;;;;;;;5031091;28;20513;-69
2022/06/20 00:46:30;;;;;;;6.53;2.17;;;;;;;;;;5013081;28;20053;-70
2022/06/20 00:48:56;;;;;;;7.53;2.25;;;;;;;;;;5030945;28;20058;-70
2022/06/20 00:51:31;;;;;;;6.35;1.77;;;;;;;;;;5030916;28;20045;-70
2022/06/20 00:54:18;;;;;;;5.50;2.00;;;;;;;;;;5031053;28;20057;-70
2022/06/20 00:56:50;;;;;;;7.75;1.73;;;;;;;;;;4951527;28;20065;-70
2022/06/20 00:59:20;;;;;;;7.80;2.25;;;;;;;;;;5031072;28;20408;-70
2022/06/20 01:01:46;;;;;;;9.60;2.42;;;;;;;;;;5030266;28;20554;-70
2022/06/20 01:04:19;;;;;;;9.50;2.33;;;;;;;;;;5013260;28;20045;-70
2022/06/20 01:06:48;;;;;;;6.32;2.00;;;;;;;;;;4996534;28;20107;-70
2022/06/20 01:09:15;;;;;;;12.32;2.47;;;;;;;;;;4996961;28;20045;-70
2022/06/20 01:11:50;;;;;;;7.00;2.08;;;;;;;;;;5030595;28;20134;-70
2022/06/20 01:14:38;;;;;;;5.32;1.90;;;;;;;;;;5029942;28;20053;-70
2022/06/20 01:17:16;;;;;;;5.00;1.98;;;;;;;;;;5013248;28;20200;-70
2022/06/20 01:19:45;;;;;;;6.30;1.83;;;;;;;;;;5030514;28;20521;-69
2022/06/20 01:22:30;;;;;;;5.40;1.77;;;;;;;;;;5030452;28;20773;-70
2022/06/20 01:25:06;;;;;;;6.32;1.63;;;;;;;;;;5012559;28;20088;-70
2022/06/20 01:27:39;;;;;;;6.25;2.10;;;;;;;;;;5029999;28;20046;-70
2022/06/20 01:30:05;;;;;;;6.22;1.90;;;;;;;;;;4993188;28;20049;-69
2022/06/20 01:32:31;;;;;;;5.78;1.55;;;;;;;;;;5030202;28;20038;-70
2022/06/20 01:34:59;;;;;;;7.85;2.03;;;;;;;;;;5012585;28;20049;-70
2022/06/20 01:37:29;;;;;;;5.07;2.05;;;;;;;;;;5012211;28;20140;-70
2022/06/20 01:40:06;;;;;;;8.63;2.28;;;;;;;;;;5012589;28;20049;-70
2022/06/20 01:42:33;;;;;;;8.15;2.70;;;;;;;;;;5011409;28;20149;-69
2022/06/20 01:45:01;;;;;;;10.13;2.28;;;;;;;;;;4993106;28;20204;-70
2022/06/20 01:47:27;;;;;;;8.25;1.90;;;;;;;;;;5010800;28;20494;-69
2022/06/20 01:49:56;;;;;;;11.45;2.55;;;;;;;;;;4993449;28;20060;-69
2022/06/20 01:52:22;;;;;;;9.60;2.45;;;;;;;;;;4993476;28;20069;-70
2022/06/20 01:54:54;;;;;;;10.73;2.30;;;;;;;;;;5010889;28;20045;-69
2022/06/20 01:57:21;;;;;;;8.02;2.42;;;;;;;;;;4993714;28;20371;-70
2022/06/20 01:59:57;;;;;;;10.65;2.78;;;;;;;;;;4992615;28;20050;-70
2022/06/20 02:02:23;;;;;;;9.90;2.63;;;;;;;;;;4993413;28;20048;-70
2022/06/20 02:04:49;;;;;;;8.98;2.38;;;;;;;;;;5009500;28;20081;-70
2022/06/20 02:07:15;;;;;;;7.88;2.90;;;;;;;;;;4993318;28;20052;-70
2022/06/20 02:09:42;;;;;;;8.00;2.65;;;;;;;;;;4992921;28;20046;-70
2022/06/20 02:12:09;;;;;;;7.80;2.30;;;;;;;;;;4992569;28;20137;-70
2022/06/20 02:15:08;;;;;;;6.38;2.63;;;;;;;;;;4992480;28;20124;-69
2022/06/20 02:17:34;;;;;;;;;;;;;;;;;;4959534;28;20058;-70
2022/06/20 02:20:02;;;;;;;6.88;2.20;;;;;;;;;;4992817;28;20263;-70
2022/06/20 02:22:28;;;;;;;9.90;2.83;;;;;;;;;;5010113;28;20072;-70
2022/06/20 02:24:57;;;;;;;7.65;2.45;;;;;;;;;;5010735;28;20053;-70
2022/06/20 02:27:32;;;;;;;8.20;2.63;;;;;;;;;;5009509;28;20045;-69
2022/06/20 02:30:01;;;;;;;7.53;2.72;;;;;;;;;;4992500;28;20081;-69
2022/06/20 02:32:28;;;;;;;9.02;2.85;;;;;;;;;;5009927;28;20503;-69
2022/06/20 02:34:55;;;;;;;9.75;2.80;;;;;;;;;;4992429;28;20053;-69
2022/06/20 02:37:23;;;;;;;11.05;3.00;;;;;;;;;;4992359;28;20071;-69
2022/06/20 02:39:51;;;;;;;6.22;2.75;;;;;;;;;;5008970;28;20116;-69
2022/06/20 02:42:19;;;;;;;7.43;2.40;;;;;;;;;;4992255;28;20053;-69
2022/06/20 02:44:46;;;;;;;10.32;2.75;;;;;;;;;;5009820;28;20042;-70
2022/06/20 02:47:13;;;;;;;9.93;2.60;;;;;;;;;;5010179;28;20046;-70
2022/06/20 02:49:40;;;;;;;10.63;2.63;;;;;;;;;;5010167;28;20457;-69
2022/06/20 02:52:07;;;;;;;5.88;2.47;;;;;;;;;;5010159;28;20308;-69
2022/06/20 02:54:35;;;;;;;8.60;2.40;;;;;;;;;;4992054;28;20061;-70
2022/06/20 02:57:03;;;;;;;10.98;3.00;;;;;;;;;;4993285;28;20041;-69
2022/06/20 02:59:32;;;;;;;8.35;2.55;;;;;;;;;;4992104;28;20046;-70
2022/06/20 03:02:07;;;;;;;7.60;2.40;;;;;;;;;;4992339;28;20545;-70
2022/06/20 03:04:35;;;;;;;10.20;2.75;;;;;;;;;;4992004;28;20050;-69
2022/06/20 03:07:03;;;;;;;10.60;3.13;;;;;;;;;;5010236;28;20046;-69
2022/06/20 03:09:34;;;;;;;8.13;2.30;;;;;;;;;;5009816;28;20042;-69
2022/06/20 03:12:02;;;;;;;6.10;2.90;;;;;;;;;;5009625;28;20046;-69
2022/06/20 03:14:54;;;;;;;8.23;2.88;;;;;;;;;;5009591;28;20048;-69
2022/06/20 03:17:22;;;;;;;6.43;2.85;;;;;;;;;;5004036;28;20530;-69
2022/06/20 03:19:49;;;;;;;22.58;5.60;;;;;;;;;;5010082;28;20061;-70
2022/06/20 03:22:17;;;;;;;11.15;3.53;;;;;;;;;;5011035;28;20053;-69
2022/06/20 03:24:43;;;;;;;12.33;3.17;;;;;;;;;;5010046;28;20402;-69
2022/06/20 03:27:15;;;;;;;9.68;3.28;;;;;;;;;;4992170;28;20303;-69
2022/06/20 03:29:44;;;;;;;7.78;3.05;;;;;;;;;;5009407;28;20526;-69
2022/06/20 03:32:10;;;;;;;5.03;2.97;;;;;;;;;;4992380;28;20061;-69
2022/06/20 03:34:36;;;;;;;7.22;3.20;;;;;;;;;;5009522;28;20042;-69
2022/06/20 03:37:02;;;;;;;5.38;2.88;;;;;;;;;;4992297;28;20298;-69
2022/06/20 03:39:29;;;;;;;23.25;6.30;;;;;;;;;;5008903;28;20038;-69
2022/06/20 03:41:55;;;;;;;7.45;3.50;;;;;;;;;;5009501;28;20046;-69
2022/06/20 03:44:29;;;;;;;7.22;3.70;;;;;;;;;;4991906;28;20502;-69
2022/06/20 03:47:12;;;;;;;8.50;3.50;;;;;;;;;;5009675;28;20553;-69
2022/06/20 03:49:38;;;;;;;11.25;4.25;;;;;;;;;;5008983;28;20108;-69
2022/06/20 03:52:14;;;;;;;7.28;3.70;;;;;;;;;;5009379;28;20053;-69
2022/06/20 03:54:45;;;;;;;10.32;3.97;;;;;;;;;;5010706;28;20132;-69
2022/06/20 03:57:16;;;;;;;8.80;3.92;;;;;;;;;;5028518;28;20057;-69
2022/06/20 03:59:44;;;;;;;19.50;5.22;;;;;;;;;;5018163;28;20108;-69
2022/06/20 04:02:20;;;;;;;10.82;3.40;;;;;;;;;;5030956;28;20132;-69
2022/06/20 04:04:51;;;;;;;11.02;3.97;;;;;;;;;;5030469;28;20375;-69
2022/06/20 04:07:29;;;;;;;11.50;3.90;;;;;;;;;;5030526;28;20053;-69
2022/06/20 04:13:19;;;;;;;10.35;4.65;;;;;;;;;;5018486;28;20053;-70
2022/06/20 04:15:49;;;;;;;10.30;4.50;;;;;;;;;;5011071;28;20050;-70
2022/06/20 04:18:29;;;;;;;14.88;4.75;;;;;;;;;;5013169;28;20121;-70
2022/06/20 04:20:55;;;;;;;12.48;4.78;;;;;;;;;;5011382;28;20124;-70
2022/06/20 04:23:27;;;;;;;9.50;4.68;;;;;;;;;;5012185;28;20129;-70
2022/06/20 04:26:02;;;;;;;10.02;4.55;;;;;;;;;;5012817;28;20053;-70
2022/06/20 04:28:28;;;;;;;10.55;4.30;;;;;;;;;;5011016;28;20045;-70
2022/06/20 04:30:57;;;;;;;8.20;3.85;;;;;;;;;;5011242;28;20450;-70
2022/06/20 04:33:43;;;;;;;17.70;5.80;;;;;;;;;;5011254;28;20050;-71
2022/06/20 04:36:12;;;;;;;10.05;4.85;;;;;;;;;;5012299;28;20388;-71
2022/06/20 04:38:54;;;;;;;19.55;6.18;;;;;;;;;;5010158;28;20049;-71
2022/06/20 04:41:46;;;;;;;31.45;9.00;;;;;;;;;;5012506;28;20051;-71
2022/06/20 04:44:12;;;;;;;31.17;9.10;;;;;;;;;;5008003;28;20403;-71
2022/06/20 04:46:45;;;;;;;20.65;6.32;;;;;;;;;;4994547;28;20038;-70
2022/06/20 04:49:13;;;;;;;24.13;5.90;;;;;;;;;;5010642;28;20092;-70
2022/06/20 04:51:40;;;;;;;12.82;4.07;;;;;;;;;;5006334;28;20381;-70
2022/06/20 04:54:12;;;;;;;12.02;4.60;;;;;;;;;;4993846;28;20153;-70
2022/06/20 04:56:39;;;;;;;8.45;3.72;;;;;;;;;;4997699;28;20050;-70
2022/06/20 04:59:07;;;;;;;8.05;3.70;;;;;;;;;;4992277;28;20442;-70
2022/06/20 05:01:34;;;;;;;14.35;4.75;;;;;;;;;;4990690;28;20046;-70
2022/06/20 05:04:18;;;;;;;7.68;3.22;;;;;;;;;;4990371;28;20179;-70
2022/06/20 05:06:44;;;;;;;14.65;4.35;;;;;;;;;;4991395;28;20356;-70
2022/06/20 05:09:10;;;;;;;15.20;4.75;;;;;;;;;;4990913;28;20109;-70
2022/06/20 05:11:40;;;;;;;11.55;3.90;;;;;;;;;;4990812;28;20097;-70
2022/06/20 05:14:09;;;;;;;14.93;4.90;;;;;;;;;;4991273;28;20129;-70
2022/06/20 05:16:39;;;;;;;18.83;5.53;;;;;;;;;;4991872;28;20050;-70
2022/06/20 05:19:12;;;;;;;15.02;5.97;;;;;;;;;;4990659;28;20097;-70
2022/06/20 05:21:40;;;;;;;20.45;5.68;;;;;;;;;;4990147;28;20050;-70
2022/06/20 05:24:11;;;;;;;15.50;5.63;;;;;;;;;;4991861;28;20452;-70
2022/06/20 05:26:39;;;;;;;21.48;7.15;;;;;;;;;;4991482;28;20050;-70
2022/06/20 05:29:07;;;;;;;31.00;9.23;;;;;;;;;;4991944;28;20524;-71
2022/06/20 05:31:39;;;;;;;26.80;8.25;;;;;;;;;;4990410;28;20053;-70
2022/06/20 05:34:19;;;;;;;21.70;6.40;;;;;;;;;;4990545;28;20042;-71
2022/06/20 05:36:52;;;;;;;8.80;3.38;;;;;;;;;;4989443;28;20132;-70
2022/06/20 05:39:22;;;;;;;7.47;3.45;;;;;;;;;;4991738;28;20517;-70
2022/06/20 05:41:49;;;;;;;30.13;9.77;;;;;;;;;;4991502;28;20066;-70
2022/06/20 05:44:15;;;;;;;7.57;3.00;;;;;;;;;;4990567;28;20403;-70
2022/06/20 05:46:53;;;;;;;12.85;3.88;;;;;;;;;;4989823;28;20046;-70
2022/06/20 05:49:25;;;;;;;13.13;3.33;;;;;;;;;;4990185;28;20133;-71
2022/06/20 05:51:52;;;;;;;23.42;7.25;;;;;;;;;;5007817;28;20065;-70
2022/06/20 05:54:20;;;;;;;13.45;3.58;;;;;;;;;;4993220;28;20057;-70
2022/06/20 05:56:57;;;;;;;19.07;5.13;;;;;;;;;;5011082;28;20149;-70
2022/06/20 05:59:26;;;;;;;12.98;4.38;;;;;;;;;;4993956;28;20042;-70
2022/06/20 06:01:53;;;;;;;7.38;3.08;;;;;;;;;;5009692;28;20486;-71
2022/06/20 06:04:34;;;;;;;13.50;3.35;;;;;;;;;;5011923;28;20092;-70
2022/06/20 06:07:09;;;;;;;8.35;2.90;;;;;;;;;;5029904;28;20045;-70
2022/06/20 06:09:55;;;;;;;23.10;7.70;;;;;;;;;;4999055;28;20522;-69
2022/06/20 06:12:33;;;;;;;8.57;3.60;;;;;;;;;;5011634;28;20049;-70
2022/06/20 06:15:05;;;;;;;8.75;3.25;;;;;;;;;;5029651;28;20047;-70
2022/06/20 06:17:54;;;;;;;10.38;3.50;;;;;;;;;;5011559;28;20091;-70
2022/06/20 06:20:23;;;;;;;21.88;6.78;;;;;;;;;;4999338;28;20066;-70
2022/06/20 06:22:52;;;;;;;10.25;3.28;;;;;;;;;;5029327;28;20139;-69
2022/06/20 06:25:31;;;;;;;8.23;3.60;;;;;;;;;;5029488;28;20095;-70
2022/06/20 06:28:02;;;;;;;13.75;3.78;;;;;;;;;;5011802;28;20056;-70
2022/06/20 06:30:30;;;;;;;8.95;3.33;;;;;;;;;;5011330;28;20045;-70
2022/06/20 06:32:56;;;;;;;10.75;3.60;;;;;;;;;;5010885;28;20049;-70
2022/06/20 06:35:28;;;;;;;12.63;3.75;;;;;;;;;;5029414;28;20049;-70
2022/06/20 06:37:54;;;;;;;16.73;4.40;;;;;;;;;;5011823;28;20051;-70
2022/06/20 06:40:26;;;;;;;10.75;3.60;;;;;;;;;;5011832;28;20050;-71
2022/06/20 06:42:55;;;;;;;16.02;4.55;;;;;;;;;;4994950;28;20055;-71
2022/06/20 06:45:26;;;;;;;13.10;3.30;;;;;;;;;;5011490;28;20088;-70
2022/06/20 06:48:05;;;;;;;9.10;3.22;;;;;;;;;;5028449;28;20048;-70
2022/06/20 06:50:34;;;;;;;8.10;3.08;;;;;;;;;;5005431;28;20112;-70
2022/06/20 06:53:17;;;;;;;10.85;3.65;;;;;;;;;;4973074;28;20133;-70
2022/06/20 06:55:46;;;;;;;9.05;3.55;;;;;;;;;;4988947;28;20382;-70
2022/06/20 06:58:12;;;;;;;8.98;3.10;;;;;;;;;;4990418;28;20435;-70
2022/06/20 07:00:40;;;;;;;11.27;3.55;;;;;;;;;;4956362;28;20056;-70
2022/06/20 07:03:12;;;;;;;22.20;5.78;;;;;;;;;;4989853;28;20480;-70
2022/06/20 07:05:41;;;;;;;12.32;3.95;;;;;;;;;;4990127;28;20089;-70
2022/06/20 07:08:15;;;;;;;8.82;3.60;;;;;;;;;;4989094;28;20495;-69
2022/06/20 07:10:47;;;;;;;13.63;3.50;;;;;;;;;;4989923;28;20054;-70
2022/06/20 07:13:22;;;;;;;16.65;5.32;;;;;;;;;;4989620;28;20534;-70
2022/06/20 07:15:50;;;;;;;11.60;3.78;;;;;;;;;;4988654;28;20402;-70
2022/06/20 07:18:31;;;;;;;10.47;3.60;;;;;;;;;;4989967;28;20061;-70
2022/06/20 07:20:57;;;;;;;18.13;4.25;;;;;;;;;;4989116;28;20050;-68
2022/06/20 07:23:23;;;;;;;11.55;3.75;;;;;;;;;;4990292;28;20054;-68
2022/06/20 07:25:50;;;;;;;9.95;3.17;;;;;;;;;;4990919;28;20049;-69
2022/06/20 07:28:16;;;;;;;20.23;5.07;;;;;;;;;;4992666;28;20125;-69
2022/06/20 07:30:46;;;;;;;22.27;7.63;;;;;;;;;;4992392;28;20046;-69
2022/06/20 07:33:24;;;;;;;10.98;3.47;;;;;;;;;;4993614;28;20038;-69
2022/06/20 07:35:53;;;;;;;9.55;3.47;;;;;;;;;;4992367;28;20100;-70
2022/06/20 07:38:21;;;;;;;8.02;3.35;;;;;;;;;;4993869;28;20108;-70
2022/06/20 07:40:47;;;;;;;11.80;2.72;;;;;;;;;;4993655;28;20050;-70
2022/06/20 07:43:18;;;;;;;10.10;3.08;;;;;;;;;;4976694;28;20478;-69
2022/06/20 07:45:54;;;;;;;9.32;2.88;;;;;;;;;;4992052;28;20053;-70
2022/06/20 07:48:31;;;;;;;9.43;2.60;;;;;;;;;;4992429;28;20050;-70
2022/06/20 07:51:00;;;;;;;9.68;2.83;;;;;;;;;;5004887;28;20058;-70
2022/06/20 07:53:39;;;;;;;6.10;2.20;;;;;;;;;;5018965;28;20089;-70
2022/06/20 07:56:15;;;;;;;10.68;3.20;;;;;;;;;;4997489;28;20052;-70
2022/06/20 07:58:47;;;;;;;8.43;2.88;;;;;;;;;;5023048;28;20042;-70
2022/06/20 08:01:23;;;;;;;10.05;3.28;;;;;;;;;;4986413;28;20559;-70
2022/06/20 08:04:02;;;;;;;8.07;2.80;;;;;;;;;;5005909;28;20494;-70
2022/06/20 08:06:37;;;;;;;9.18;2.65;;;;;;;;;;5000399;28;20129;-70
2022/06/20 08:09:33;;;;;;;10.43;3.03;;;;;;;;;;5013593;28;20050;-70
2022/06/20 08:12:05;;;;;;;7.13;2.35;;;;;;;;;;5002139;28;20474;-70
2022/06/20 08:14:54;;;;;;;8.32;2.97;;;;;;;;;;4994325;28;20133;-70
2022/06/20 08:17:22;;;;;;;10.38;2.88;;;;;;;;;;5011674;28;20053;-70
2022/06/20 08:19:49;;;;;;;7.53;2.45;;;;;;;;;;5000133;28;20045;-70
2022/06/20 08:22:27;;;;;;;8.63;2.50;;;;;;;;;;5013608;28;20053;-70
2022/06/20 08:24:58;;;;;;;6.32;2.20;;;;;;;;;;5000898;28;20096;-70
2022/06/20 08:27:44;;;;;;;6.32;2.55;;;;;;;;;;5015484;28;20113;-70
2022/06/20 08:30:11;;;;;;;8.80;2.70;;;;;;;;;;4999154;28;20129;-70
2022/06/20 08:32:43;;;;;;;7.95;2.38;;;;;;;;;;5016443;28;20128;-69
2022/06/20 08:35:15;;;;;;;16.15;4.30;;;;;;;;;;5015834;28;20125;-70
2022/06/20 08:37:44;;;;;;;8.40;2.45;;;;;;;;;;4998348;28;20106;-70
2022/06/20 08:40:23;;;;;;;6.22;2.40;;;;;;;;;;4999789;28;20041;-69
2022/06/20 08:42:55;;;;;;;8.90;3.13;;;;;;;;;;5020182;28;20087;-70
2022/06/20 08:45:24;;;;;;;6.13;2.13;;;;;;;;;;5022758;28;20046;-70
2022/06/20 08:48:09;;;;;;;14.90;3.70;;;;;;;;;;5001543;28;20048;-70
2022/06/20 08:50:54;;;;;;;13.88;2.70;;;;;;;;;;5006124;28;20058;-69
2022/06/20 08:53:20;;;;;;;7.32;2.50;;;;;;;;;;5029607;28;20100;-68
2022/06/20 08:56:05;;;;;;;14.27;3.45;;;;;;;;;;5029291;28;20120;-69
2022/06/20 08:58:31;;;;;;;11.35;3.63;;;;;;;;;;5030313;28;20114;-68
2022/06/20 09:01:03;;;;;;;6.20;2.50;;;;;;;;;;5029479;28;20042;-69
2022/06/20 09:03:32;;;;;;;9.25;2.40;;;;;;;;;;5030749;28;20076;-69
2022/06/20 09:05:58;;;;;;;11.95;2.72;;;;;;;;;;5029535;28;20056;-69
2022/06/20 09:08:50;;;;;;;10.57;3.00;;;;;;;;;;5029677;28;20037;-69
2022/06/20 09:11:19;;;;;;;8.55;2.30;;;;;;;;;;4991836;28;20046;-69
2022/06/20 09:13:46;;;;;;;;;;;;;;;;;;5010170;28;20089;-69
2022/06/20 09:16:18;;;;;;;7.53;2.38;;;;;;;;;;5010648;28;19992;-69
2022/06/20 09:18:49;;;;;;;7.57;2.10;;;;;;;;;;5011535;28;20037;-68
2022/06/20 09:21:30;;;;;;;8.57;2.28;;;;;;;;;;5011727;28;20046;-69
2022/06/20 09:23:59;;;;;;;8.80;2.47;;;;;;;;;;5010227;28;20049;-69
2022/06/20 09:26:28;;;;;;;28.33;8.48;;;;;;;;;;5010226;28;20053;-69
2022/06/20 09:29:12;;;;;;;12.95;4.57;;;;;;;;;;5010942;28;20089;-70
2022/06/20 09:31:38;;;;;;;7.07;2.35;;;;;;;;;;5009657;28;20421;-70
2022/06/20 09:34:22;;;;;;;6.28;2.10;;;;;;;;;;5011480;28;20071;-70
2022/06/20 09:37:07;;;;;;;6.53;1.88;;;;;;;;;;5009838;28;20108;-70
2022/06/20 09:39:36;;;;;;;5.13;1.92;;;;;;;;;;5009769;28;20053;-70
2022/06/20 09:42:12;;;;;;;7.85;2.58;;;;;;;;;;5009715;28;20050;-69
2022/06/20 09:44:56;;;;;;;9.52;2.65;;;;;;;;;;5009620;28;20053;-69
2022/06/20 09:47:28;;;;;;;7.85;2.38;;;;;;;;;;5011357;28;20053;-70
2022/06/20 09:50:01;;;;;;;5.90;2.47;;;;;;;;;;5010868;28;20495;-70
2022/06/20 09:52:37;;;;;;;4.63;1.50;;;;;;;;;;5010683;28;20529;-70
2022/06/20 09:55:13;;;;;;;5.95;1.90;;;;;;;;;;5010724;28;20487;-69
2022/06/20 09:57:45;;;;;;;6.53;2.50;;;;;;;;;;4992694;28;20073;-70
2022/06/20 10:00:20;;;;;;;5.93;1.40;;;;;;;;;;4977174;28;20077;-70
2022/06/20 10:02:49;;;;;;;7.00;2.17;;;;;;;;;;5010570;28;20054;-70
2022/06/20 10:05:39;;;;;;;4.43;1.55;;;;;;;;;;4993032;28;20112;-70
2022/06/20 10:08:41;;;;;;;5.53;1.50;;;;;;;;;;4993502;28;20058;-69
2022/06/20 10:11:14;;;;;;;3.10;1.17;;;;;;;;;;4912030;29;20052;-70
2022/06/20 10:13:46;;;;;;;4.93;1.30;;;;;;;;;;4898910;29;20060;-70
2022/06/20 10:16:12;;;;;;;2.97;1.30;;;;;;;;;;4929892;29;20126;-69
2022/06/20 10:18:37;;;;;;;3.80;1.50;;;;;;;;;;4929587;29;20136;-70
2022/06/20 10:21:22;;;;;;;5.22;1.90;;;;;;;;;;4914307;29;20237;-70
2022/06/20 10:24:02;;;;;;;3.22;1.52;;;;;;;;;;4929575;29;20051;-70
2022/06/20 10:26:51;;;;;;;5.72;1.63;;;;;;;;;;4912911;29;20066;-69
2022/06/20 10:29:22;;;;;;;4.40;1.52;;;;;;;;;;4929815;29;20126;-70
2022/06/20 10:31:56;;;;;;;4.28;1.40;;;;;;;;;;4913897;29;20064;-70
2022/06/20 10:34:51;;;;;;;5.22;1.55;;;;;;;;;;4914384;29;20099;-70
2022/06/20 10:37:26;;;;;;;2.20;1.40;;;;;;;;;;4912779;29;20083;-70
2022/06/20 10:40:01;;;;;;;4.43;1.45;;;;;;;;;;4896810;29;20288;-70
2022/06/20 10:42:31;;;;;;;3.42;1.50;;;;;;;;;;4910996;29;20044;-70
2022/06/20 10:45:23;;;;;;;4.45;1.65;;;;;;;;;;4960300;28;20144;-70
2022/06/20 10:47:52;;;;;;;4.53;1.60;;;;;;;;;;5028912;28;20089;-70
2022/06/20 10:50:44;;;;;;;5.07;1.50;;;;;;;;;;5011923;28;20120;-69
2022/06/20 10:53:28;;;;;;;5.07;1.67;;;;;;;;;;4991261;28;20367;-70
2022/06/20 10:55:59;;;;;;;7.80;1.70;;;;;;;;;;5042137;28;20097;-70
2022/06/20 10:58:25;;;;;;;4.93;1.80;;;;;;;;;;5008761;28;20046;-70
2022/06/20 11:00:55;;;;;;;5.57;1.80;;;;;;;;;;5008049;28;20431;-69
2022/06/20 11:03:39;;;;;;;6.50;1.38;;;;;;;;;;5010020;28;20112;-70
2022/06/20 11:06:08;;;;;;;5.28;1.77;;;;;;;;;;5009893;28;20056;-70
2022/06/20 11:08:52;;;;;;;5.65;1.50;;;;;;;;;;5007850;28;20050;-69
2022/06/20 11:11:30;;;;;;;5.57;1.67;;;;;;;;;;5009992;28;20054;-69
2022/06/20 11:14:15;;;;;;;4.55;1.52;;;;;;;;;;5008707;28;20046;-70
2022/06/20 11:16:46;;;;;;;6.03;1.70;;;;;;;;;;5008117;28;20046;-70
2022/06/20 11:19:18;;;;;;;4.50;1.40;;;;;;;;;;5008589;28;20046;-70
2022/06/20 11:21:44;;;;;;;4.57;1.50;;;;;;;;;;5010804;28;20134;-70
2022/06/20 11:24:15;;;;;;;6.35;1.70;;;;;;;;;;5016135;28;20498;-70
2022/06/20 11:26:59;;;;;;;14.30;3.67;;;;;;;;;;5031189;28;20129;-70
2022/06/20 11:29:28;;;;;;;6.65;1.70;;;;;;;;;;5028666;28;20053;-71
2022/06/20 11:31:53;;;;;;;4.00;1.27;;;;;;;;;;5026928;28;20102;-70
2022/06/20 11:34:26;;;;;;;4.32;1.20;;;;;;;;;;5027365;28;20405;-71
2022/06/20 11:37:07;;;;;;;6.60;2.05;;;;;;;;;;5028617;28;20494;-70
2022/06/20 11:39:37;;;;;;;4.07;1.33;;;;;;;;;;5026595;28;20501;-71
2022/06/20 11:42:04;;;;;;;6.03;1.48;;;;;;;;;;5027280;28;20136;-71
2022/06/20 11:44:42;;;;;;;4.60;1.45;;;;;;;;;;5028174;28;20037;-71
2022/06/20 11:47:20;;;;;;;4.20;1.52;;;;;;;;;;5017759;28;20050;-70
2022/06/20 11:50:05;;;;;;;3.72;1.30;;;;;;;;;;5010959;28;20073;-70
2022/06/20 11:52:50;;;;;;;4.70;1.50;;;;;;;;;;4994121;28;20513;-70
2022/06/20 11:55:22;;;;;;;5.82;1.95;;;;;;;;;;5013948;28;20049;-70
2022/06/20 11:57:52;;;;;;;4.15;1.48;;;;;;;;;;5015592;28;20096;-69
2022/06/20 12:00:41;;;;;;;7.97;1.90;;;;;;;;;;5030810;28;20047;-70
2022/06/20 12:03:07;;;;;;;;;;;;;;;;;;5019566;28;20108;-70
2022/06/20 12:05:55;;;;;;;4.57;1.55;;;;;;;;;;5017398;28;19925;-70
2022/06/20 12:08:29;;;;;;;5.43;1.50;;;;;;;;;;5007743;28;20091;-69
2022/06/20 12:10:57;;;;;;;4.55;1.60;;;;;;;;;;5009556;28;20192;-70
2022/06/20 12:13:38;;;;;;;4.53;1.70;;;;;;;;;;5041095;28;20364;-69
2022/06/20 12:16:34;;;;;;;5.85;1.35;;;;;;;;;;5031790;28;20095;-70
2022/06/20 12:24:33;;;;;;;4.38;1.80;;;;;;;;;;5027352;28;20085;-69
2022/06/20 12:26:59;;;;;;;5.72;1.60;;;;;;;;;;5011080;28;20046;-69
2022/06/20 12:29:26;;;;;;;3.42;1.80;;;;;;;;;;5012371;28;20050;-69
2022/06/20 12:31:54;;;;;;;5.57;1.77;;;;;;;;;;5012320;28;20509;-69
2022/06/20 12:34:39;;;;;;;7.22;1.85;;;;;;;;;;5017838;28;20041;-70
2022/06/20 12:37:12;;;;;;;3.67;1.90;;;;;;;;;;5030859;28;20057;-70
2022/06/20 12:39:41;;;;;;;6.70;1.80;;;;;;;;;;5030940;28;20053;-70
2022/06/20 12:42:10;;;;;;;11.63;3.10;;;;;;;;;;5013386;28;20045;-70
2022/06/20 12:44:36;;;;;;;5.20;2.10;;;;;;;;;;5029597;28;20045;-70
2022/06/20 12:47:14;;;;;;;6.50;1.85;;;;;;;;;;5030274;28;20046;-70
2022/06/20 12:49:50;;;;;;;7.35;2.00;;;;;;;;;;5030873;28;20049;-70
2022/06/20 12:52:25;;;;;;;4.38;2.00;;;;;;;;;;5013025;28;20096;-69
2022/06/20 12:55:00;;;;;;;5.63;2.22;;;;;;;;;;5013189;28;20049;-70
2022/06/20 12:57:35;;;;;;;9.82;2.47;;;;;;;;;;5031204;28;20448;-70
2022/06/20 13:00:01;;;;;;;7.68;2.58;;;;;;;;;;5031198;28;20049;-69
2022/06/20 13:02:33;;;;;;;7.63;1.77;;;;;;;;;;5012928;28;20409;-70
2022/06/20 13:05:17;;;;;;;7.05;1.65;;;;;;;;;;5011824;28;20065;-69
2022/06/20 13:08:07;;;;;;;6.88;1.70;;;;;;;;;;5008467;28;20045;-70
2022/06/20 13:10:32;;;;;;;10.05;2.00;;;;;;;;;;5012842;28;20099;-70
2022/06/20 13:13:08;;;;;;;2.58;1.50;;;;;;;;;;5002901;28;20037;-69
2022/06/20 13:15:37;;;;;;;4.75;1.90;;;;;;;;;;5019701;28;20047;-69
2022/06/20 13:18:03;;;;;;;4.70;2.00;;;;;;;;;;4996315;28;20415;-69
2022/06/20 13:20:44;;;;;;;4.95;1.70;;;;;;;;;;5014690;28;20045;-69
2022/06/20 13:23:32;;;;;;;5.70;1.83;;;;;;;;;;4993242;28;20053;-68
2022/06/20 13:26:03;;;;;;;4.90;2.03;;;;;;;;;;4993678;28;20052;-69
2022/06/20 13:28:32;;;;;;;5.95;1.80;;;;;;;;;;5011377;28;20129;-69
2022/06/20 13:31:05;;;;;;;7.57;2.00;;;;;;;;;;4993963;28;20128;-69
2022/06/20 13:33:34;;;;;;;4.50;1.70;;;;;;;;;;5010602;28;20065;-69
2022/06/20 13:36:13;;;;;;;3.50;1.67;;;;;;;;;;5010217;28;20137;-69
2022/06/20 13:38:48;;;;;;;5.13;2.10;;;;;;;;;;4993358;28;20421;-70
2022/06/20 13:41:14;;;;;;;6.78;2.58;;;;;;;;;;5011372;28;20046;-70
2022/06/20 13:43:58;;;;;;;4.65;1.55;;;;;;;;;;5010810;28;20052;-69
2022/06/20 13:46:27;;;;;;;5.78;2.40;;;;;;;;;;5011081;28;20042;-69
2022/06/20 13:48:54;;;;;;;8.20;2.30;;;;;;;;;;4993201;28;20054;-69
2022/06/20 13:51:26;;;;;;;4.57;1.63;;;;;;;;;;5011024;28;20054;-69
2022/06/20 13:53:59;;;;;;;19.50;6.28;;;;;;;;;;4993272;28;20052;-70
2022/06/20 13:56:28;;;;;;;21.48;4.72;;;;;;;;;;4993204;28;20399;-69
2022/06/20 13:59:16;;;;;;;10.32;3.17;;;;;;;;;;4993304;28;20053;-70
2022/06/20 14:01:44;;;;;;;2.85;1.42;;;;;;;;;;4992682;28;20054;-69
2022/06/20 14:04:15;;;;;;;11.98;2.95;;;;;;;;;;4992807;28;20088;-69
2022/06/20 14:07:01;;;;;;;4.53;1.88;;;;;;;;;;4992724;28;20566;-70
2022/06/20 14:09:30;;;;;;;12.38;2.95;;;;;;;;;;4992620;28;20508;-70
2022/06/20 14:11:58;;;;;;;14.40;3.58;;;;;;;;;;4992780;28;20111;-70
2022/06/20 14:14:24;;;;;;;;;;;;;;;;;;4993367;28;20045;-70
2022/06/20 14:16:55;;;;;;;16.83;1.73;;;;;;;;;;5010146;28;19984;-70
2022/06/20 14:19:24;;;;;;;5.55;1.48;;;;;;;;;;4992969;28;20136;-70
2022/06/20 14:21:53;;;;;;;25.55;7.70;;;;;;;;;;4992494;28;20534;-70
2022/06/20 14:24:27;;;;;;;4.43;1.95;;;;;;;;;;5017109;28;20041;-69
2022/06/20 14:26:59;;;;;;;5.28;1.77;;;;;;;;;;5000730;28;20060;-70
2022/06/20 14:29:28;;;;;;;3.03;1.48;;;;;;;;;;5004980;28;20049;-69
2022/06/20 14:31:57;;;;;;;9.40;3.65;;;;;;;;;;5010724;28;20041;-69
2022/06/20 14:37:33;;;;;;;4.63;1.75;;;;;;;;;;5028359;28;20080;-69
2022/06/20 14:40:00;;;;;;;4.78;1.48;;;;;;;;;;5011266;28;20049;-69
2022/06/20 14:42:35;;;;;;;4.05;1.85;;;;;;;;;;5028779;28;20053;-69
2022/06/20 14:45:04;;;;;;;7.60;2.30;;;;;;;;;;5011272;28;20053;-70
2022/06/20 14:47:42;;;;;;;5.07;1.80;;;;;;;;;;5010306;28;20091;-70
2022/06/20 14:50:11;;;;;;;3.92;1.73;;;;;;;;;;5011339;28;20050;-70
2022/06/20 14:52:47;;;;;;;3.45;1.73;;;;;;;;;;5028801;28;20099;-70
2022/06/20 14:55:21;;;;;;;4.20;1.85;;;;;;;;;;5011208;28;20053;-70
2022/06/20 14:57:50;;;;;;;4.65;1.98;;;;;;;;;;5011139;28;20120;-69
2022/06/20 15:00:16;;;;;;;;;;;;;;;;;;5011791;28;20092;-70
2022/06/20 15:02:48;;;;;;;5.78;2.20;;;;;;;;;;5010545;28;19956;-70
2022/06/20 15:05:14;;;;;;;2.63;1.58;;;;;;;;;;5011133;28;20087;-70
2022/06/20 15:07:44;;;;;;;5.63;1.55;;;;;;;;;;5010743;28;20053;-70
2022/06/20 15:10:23;;;;;;;3.85;1.70;;;;;;;;;;5028891;28;20060;-70
2022/06/20 15:12:51;;;;;;;3.95;1.70;;;;;;;;;;5011041;28;20045;-69
2022/06/20 15:15:23;;;;;;;3.28;1.63;;;;;;;;;;5010669;28;20042;-69
2022/06/20 15:17:58;;;;;;;6.57;2.20;;;;;;;;;;5028356;28;20045;-68
2022/06/20 15:20:27;;;;;;;8.32;2.47;;;;;;;;;;5028743;28;20056;-69
2022/06/20 15:22:55;;;;;;;14.93;2.80;;;;;;;;;;5028630;28;20402;-70
2022/06/20 15:25:21;;;;;;;9.05;1.77;;;;;;;;;;5010865;28;20133;-70